createdAt,value
2019-05-17T00:01:34.446Z,92.21
2019-05-17T00:04:01.878Z,92.28
2019-05-17T00:06:29.281Z,92.92
2019-05-17T00:08:56.698Z,92.69
2019-05-17T00:11:24.161Z,93.06
2019-05-17T00:13:51.953Z,92.66
2019-05-17T00:16:19.301Z,93.33
2019-05-17T00:18:46.705Z,93.17
2019-05-17T00:21:14.117Z,93.09
2019-05-17T00:23:41.997Z,92.34
2019-05-17T00:26:09.388Z,91.35
2019-05-17T00:28:37.522Z,90.91
2019-05-17T00:31:06.655Z,90.10
2019-05-17T00:33:36.516Z,90.49
2019-05-17T00:36:03.785Z,89.62
2019-05-17T00:38:31.193Z,90.13
2019-05-17T00:40:58.581Z,89.85
2019-05-17T00:43:26.427Z,90.11
2019-05-17T00:45:53.806Z,90.03
2019-05-17T00:48:21.185Z,90.22
2019-05-17T00:50:53.427Z,89.87
2019-05-17T00:53:18.262Z,89.96
2019-05-17T00:55:46.756Z,90.22
2019-05-17T00:58:14.367Z,90.35
2019-05-17T01:00:41.726Z,90.58
2019-05-17T01:03:09.558Z,90.58
2019-05-17T01:05:37.218Z,90.35
2019-05-17T01:08:07.082Z,90.42
2019-05-17T01:10:33.936Z,90.16
2019-05-17T01:13:01.854Z,90.70
2019-05-17T01:15:29.332Z,91.88
2019-05-17T01:17:56.801Z,92.72
2019-05-17T01:20:24.266Z,92.98
2019-05-17T01:22:52.053Z,93.15
2019-05-17T01:25:19.421Z,93.20
2019-05-17T01:27:47.439Z,92.26
2019-05-17T01:30:17.532Z,93.07
2019-05-17T01:32:46.398Z,92.90
2019-05-17T01:35:16.521Z,92.62
2019-05-17T01:37:43.645Z,92.80
2019-05-17T01:40:11.916Z,93.17
2019-05-17T01:42:39.685Z,93.51
2019-05-17T01:45:08.626Z,93.54
2019-05-17T01:47:36.798Z,93.76
2019-05-17T01:50:06.849Z,93.59
2019-05-17T01:52:37.029Z,93.73
2019-05-17T01:55:06.510Z,93.63
2019-05-17T01:57:33.902Z,93.61
2019-05-17T02:00:01.314Z,93.43
2019-05-17T02:02:33.870Z,93.40
2019-05-17T02:05:01.728Z,93.34
2019-05-17T02:07:29.160Z,93.57
2019-05-17T02:09:56.949Z,93.25
2019-05-17T02:12:26.675Z,92.84
2019-05-17T02:14:54.285Z,92.90
2019-05-17T02:17:21.686Z,92.39
2019-05-17T02:19:49.102Z,92.25
2019-05-17T02:22:16.858Z,92.49
2019-05-17T02:24:46.456Z,91.63
2019-05-17T02:27:14.160Z,91.41
2019-05-17T02:29:42.411Z,92.04
2019-05-17T02:32:12.811Z,92.43
2019-05-17T02:34:43.004Z,92.64
2019-05-17T02:37:13.406Z,92.75
2019-05-17T02:39:57.109Z,92.89
2019-05-17T02:42:09.152Z,92.83
2019-05-17T02:44:37.006Z,92.54
2019-05-17T02:47:04.377Z,92.66
2019-05-17T02:49:33.021Z,92.33
2019-05-17T02:52:03.315Z,93.00
2019-05-17T02:54:32.782Z,92.69
2019-05-17T02:57:02.813Z,93.11
2019-05-17T02:59:28.940Z,92.74
2019-05-17T03:01:56.346Z,93.04
2019-05-17T03:04:24.046Z,93.08
2019-05-17T03:06:53.238Z,92.89
2019-05-17T03:09:22.846Z,93.25
2019-05-17T03:11:52.917Z,93.16
2019-05-17T03:14:19.311Z,93.11
2019-05-17T03:16:46.677Z,93.23
2019-05-17T03:19:14.164Z,93.09
2019-05-17T03:21:42.863Z,92.89
2019-05-17T03:24:13.704Z,93.06
2019-05-17T03:26:42.736Z,93.24
2019-05-17T03:29:09.189Z,93.13
2019-05-17T03:31:44.844Z,93.02
2019-05-17T03:34:07.468Z,93.11
2019-05-17T03:36:37.174Z,92.65
2019-05-17T03:39:06.007Z,92.88
2019-05-17T03:41:34.224Z,92.91
2019-05-17T03:44:03.220Z,92.86
2019-05-17T03:46:33.406Z,92.90
2019-05-17T03:49:03.487Z,93.01
2019-05-17T03:51:33.053Z,92.75
2019-05-17T03:54:02.140Z,92.69
2019-05-17T03:56:29.305Z,92.85
2019-05-17T03:58:56.661Z,92.65
2019-05-17T04:01:24.069Z,92.25
2019-05-17T04:03:52.985Z,91.99
2019-05-17T04:06:23.718Z,92.15
2019-05-17T04:08:52.645Z,91.71
2019-05-17T04:11:27.947Z,91.70
2019-05-17T04:13:48.763Z,91.66
2019-05-17T04:16:16.142Z,91.60
2019-05-17T04:18:43.922Z,91.26
2019-05-17T04:21:12.633Z,91.26
2019-05-17T04:23:42.867Z,91.16
2019-05-17T04:26:09.676Z,91.03
2019-05-17T04:28:37.085Z,90.55
2019-05-17T04:31:04.869Z,90.63
2019-05-17T04:33:33.709Z,90.30
2019-05-17T04:36:02.648Z,90.71
2019-05-17T04:38:33.120Z,90.76
2019-05-17T04:41:03.212Z,90.66
2019-05-17T04:43:33.398Z,90.01
2019-05-17T04:46:02.818Z,90.16
2019-05-17T04:48:32.463Z,90.22
2019-05-17T04:51:02.245Z,90.00
2019-05-17T04:53:28.563Z,90.04
2019-05-17T04:55:55.962Z,90.03
2019-05-17T04:58:23.720Z,89.75
2019-05-17T05:00:53.680Z,89.31
2019-05-17T05:03:22.996Z,88.89
2019-05-17T05:05:53.186Z,89.51
2019-05-17T05:08:22.227Z,88.63
2019-05-17T05:10:48.783Z,88.89
2019-05-17T05:13:16.166Z,89.16
2019-05-17T05:15:44.769Z,88.77
2019-05-17T05:18:13.729Z,88.73
2019-05-17T05:20:43.535Z,88.97
2019-05-17T05:23:12.981Z,88.00
2019-05-17T05:25:42.904Z,87.55
2019-05-17T05:28:11.480Z,87.88
2019-05-17T05:30:41.940Z,87.55
2019-05-17T05:33:08.752Z,87.99
2019-05-17T05:35:36.651Z,88.02
2019-05-17T05:38:04.115Z,87.22
2019-05-17T05:40:32.566Z,87.39
2019-05-17T05:43:02.148Z,87.15
2019-05-17T05:45:31.928Z,87.03
2019-05-17T05:47:58.911Z,85.95
2019-05-17T05:50:26.424Z,85.97
2019-05-17T05:52:53.860Z,85.93
2019-05-17T05:55:23.395Z,85.36
2019-05-17T05:57:52.194Z,85.19
2019-05-17T06:00:22.102Z,85.00
2019-05-17T06:02:52.207Z,84.71
2019-05-17T06:05:21.905Z,84.68
2019-05-17T06:07:49.519Z,85.03
2019-05-17T06:10:16.918Z,84.82
2019-05-17T06:12:44.285Z,84.12
2019-05-17T06:15:12.829Z,83.96
2019-05-17T06:17:42.960Z,85.21
2019-05-17T06:20:11.731Z,83.87
2019-05-17T06:22:39.294Z,83.35
2019-05-17T06:25:07.759Z,83.31
2019-05-17T06:27:34.980Z,82.94
2019-05-17T06:30:02.565Z,83.07
2019-05-17T06:32:31.703Z,83.05
2019-05-17T06:35:01.689Z,83.00
2019-05-17T06:37:28.646Z,82.93
2019-05-17T06:39:56.085Z,82.47
2019-05-17T06:42:37.244Z,81.87
2019-05-17T06:44:53.446Z,82.48
2019-05-17T06:47:22.563Z,82.45
2019-05-17T06:49:50.599Z,82.05
2019-05-17T06:52:19.373Z,81.05
2019-05-17T06:54:46.875Z,80.48
2019-05-17T06:57:14.516Z,81.25
2019-05-17T06:59:41.862Z,80.65
2019-05-17T07:02:10.451Z,80.75
2019-05-17T07:04:39.534Z,80.66
2019-05-17T07:07:25.036Z,80.31
2019-05-17T07:09:52.517Z,80.82
2019-05-17T07:12:20.454Z,79.87
2019-05-17T07:14:50.559Z,79.40
2019-05-17T07:17:19.585Z,79.91
2019-05-17T07:19:46.785Z,79.91
2019-05-17T07:22:14.545Z,79.76
2019-05-17T07:24:41.947Z,80.01
2019-05-17T07:27:09.997Z,79.04
2019-05-17T07:29:40.180Z,79.09
2019-05-17T07:32:09.689Z,79.46
2019-05-17T07:34:36.620Z,80.01
2019-05-17T07:37:03.869Z,79.79
2019-05-17T07:39:31.085Z,80.51
2019-05-17T07:41:59.953Z,80.63
2019-05-17T07:44:29.534Z,80.59
2019-05-17T07:46:56.803Z,80.97
2019-05-17T07:49:23.977Z,80.36
2019-05-17T07:51:51.213Z,80.23
2019-05-17T07:54:19.721Z,79.76
2019-05-17T07:56:47.047Z,80.14
2019-05-17T07:59:14.285Z,80.07
2019-05-17T08:01:41.477Z,79.82
2019-05-17T08:04:09.988Z,79.07
2019-05-17T08:06:40.010Z,79.07
2019-05-17T08:09:06.853Z,79.12
2019-05-17T08:11:34.057Z,78.79
2019-05-17T08:14:01.640Z,79.23
2019-05-17T08:16:30.411Z,79.00
2019-05-17T08:19:00.259Z,79.28
2019-05-17T08:21:27.270Z,79.34
2019-05-17T08:23:54.459Z,78.57
2019-05-17T08:26:21.673Z,77.82
2019-05-17T08:28:50.277Z,78.44
2019-05-17T08:31:20.020Z,78.88
2019-05-17T08:33:46.841Z,78.81
2019-05-17T08:36:14.062Z,78.98
2019-05-17T08:38:41.700Z,78.21
2019-05-17T08:41:10.519Z,78.67
2019-05-17T08:43:45.774Z,78.88
2019-05-17T08:46:08.168Z,78.69
2019-05-17T08:48:37.049Z,78.30
2019-05-17T08:51:04.306Z,77.66
2019-05-17T08:53:31.507Z,78.03
2019-05-17T08:56:00.994Z,78.11
2019-05-17T08:58:29.732Z,77.40
2019-05-17T09:00:57.110Z,76.71
2019-05-17T09:03:24.318Z,76.79
2019-05-17T09:05:52.645Z,75.98
2019-05-17T09:08:20.747Z,75.57
2019-05-17T09:10:50.480Z,75.29
2019-05-17T09:13:19.585Z,74.89
2019-05-17T09:15:49.329Z,75.58
2019-05-17T09:18:16.405Z,76.27
2019-05-17T09:20:43.606Z,75.50
2019-05-17T09:23:10.817Z,75.89
2019-05-17T09:25:39.790Z,75.57
2019-05-17T09:28:09.883Z,75.46
2019-05-17T09:30:36.572Z,75.81
2019-05-17T09:33:03.783Z,74.52
2019-05-17T09:35:31.494Z,75.87
2019-05-17T09:38:00.499Z,75.11
2019-05-17T09:40:29.288Z,75.58
2019-05-17T09:43:34.301Z,75.07
2019-05-17T09:46:01.940Z,74.62
2019-05-17T09:48:30.590Z,74.87
2019-05-17T09:50:59.897Z,75.39
2019-05-17T09:53:27.557Z,74.01
2019-05-17T09:55:54.753Z,72.76
2019-05-17T09:58:21.956Z,72.59
2019-05-17T10:00:49.631Z,71.65
2019-05-17T10:03:16.883Z,71.78
2019-05-17T10:05:44.209Z,71.02
2019-05-17T10:08:11.789Z,71.29
2019-05-17T10:10:40.267Z,71.59
2019-05-17T10:13:09.777Z,72.67
2019-05-17T10:15:36.799Z,73.08
2019-05-17T10:18:04.298Z,74.09
2019-05-17T10:20:31.506Z,74.27
2019-05-17T10:22:59.619Z,73.58
2019-05-17T10:25:29.368Z,73.55
2019-05-17T10:27:56.618Z,72.46
2019-05-17T10:30:23.810Z,73.28
2019-05-17T10:32:51.025Z,73.03
2019-05-17T10:35:19.969Z,72.50
2019-05-17T10:37:50.361Z,73.48
2019-05-17T10:40:20.364Z,73.07
2019-05-17T10:42:47.018Z,72.33
2019-05-17T10:45:22.581Z,72.42
2019-05-17T10:47:50.313Z,72.22
2019-05-17T10:50:20.402Z,70.06
2019-05-17T10:52:47.227Z,70.23
2019-05-17T10:55:14.813Z,68.83
2019-05-17T10:57:42.010Z,69.19
2019-05-17T11:00:10.456Z,68.81
2019-05-17T11:02:37.756Z,69.45
2019-05-17T11:05:05.480Z,67.99
2019-05-17T11:07:32.724Z,67.49
2019-05-17T11:10:00.598Z,66.83
2019-05-17T11:12:28.185Z,66.35
2019-05-17T11:15:10.406Z,67.41
2019-05-17T11:17:25.261Z,65.63
2019-05-17T11:19:52.454Z,66.80
2019-05-17T11:22:22.740Z,67.59
2019-05-17T11:24:49.980Z,68.47
2019-05-17T11:27:19.255Z,68.02
2019-05-17T11:29:46.317Z,66.33
2019-05-17T11:32:13.839Z,67.62
2019-05-17T11:34:41.067Z,68.87
2019-05-17T11:37:08.251Z,68.48
2019-05-17T11:39:35.752Z,67.58
2019-05-17T11:42:03.260Z,66.69
2019-05-17T11:44:30.491Z,68.70
2019-05-17T11:46:57.754Z,67.92
2019-05-17T11:49:25.151Z,68.16
2019-05-17T11:51:53.599Z,67.42
2019-05-17T11:54:20.854Z,69.00
2019-05-17T11:56:48.058Z,68.36
2019-05-17T11:59:15.281Z,68.48
2019-05-17T12:01:42.990Z,68.07
2019-05-17T12:04:10.213Z,67.39
2019-05-17T12:06:37.515Z,67.02
2019-05-17T12:09:05.694Z,66.78
2019-05-17T12:11:32.923Z,64.76
2019-05-17T12:14:00.108Z,64.52
2019-05-17T12:16:27.714Z,65.29
2019-05-17T12:18:54.929Z,65.22
2019-05-17T12:21:22.131Z,63.51
2019-05-17T12:23:49.374Z,61.48
2019-05-17T12:26:16.877Z,62.67
2019-05-17T12:28:44.094Z,59.62
2019-05-17T12:31:11.286Z,58.73
2019-05-17T12:33:38.468Z,57.13
2019-05-17T12:36:06.280Z,58.62
2019-05-17T12:38:33.499Z,58.36
2019-05-17T12:41:00.696Z,60.06
2019-05-17T12:43:27.898Z,59.66
2019-05-17T12:46:00.595Z,59.29
2019-05-17T12:48:24.764Z,61.23
2019-05-17T12:50:51.971Z,64.04
2019-05-17T12:53:20.261Z,61.82
2019-05-17T12:55:47.497Z,63.19
2019-05-17T12:58:14.736Z,63.67
2019-05-17T13:00:42.383Z,63.88
2019-05-17T13:03:09.645Z,61.97
2019-05-17T13:05:36.875Z,58.52
2019-05-17T13:08:04.579Z,56.90
2019-05-17T13:10:31.795Z,58.34
2019-05-17T13:12:59.023Z,58.31
2019-05-17T13:15:26.275Z,59.10
2019-05-17T13:17:53.980Z,59.78
2019-05-17T13:20:21.288Z,60.89
2019-05-17T13:22:48.537Z,61.28
2019-05-17T13:25:16.155Z,60.83
2019-05-17T13:27:43.433Z,59.48
2019-05-17T13:30:11.389Z,59.68
2019-05-17T13:32:38.663Z,60.45
2019-05-17T13:35:06.549Z,58.56
2019-05-17T13:37:33.745Z,58.85
2019-05-17T13:40:00.960Z,60.60
2019-05-17T13:42:29.982Z,60.77
2019-05-17T13:44:57.143Z,61.64
2019-05-17T13:47:24.341Z,61.15
2019-05-17T13:49:51.565Z,62.51
2019-05-17T13:52:19.359Z,62.89
2019-05-17T13:54:47.902Z,63.26
2019-05-17T13:57:15.115Z,63.13
2019-05-17T13:59:42.422Z,62.71
2019-05-17T14:02:09.620Z,63.20
2019-05-17T14:04:37.298Z,63.02
2019-05-17T14:07:04.529Z,63.44
2019-05-17T14:09:31.788Z,62.61
2019-05-17T14:11:58.983Z,63.04
2019-05-17T14:14:26.669Z,63.63
2019-05-17T14:16:53.959Z,64.89
2019-05-17T14:19:21.535Z,65.05
2019-05-17T14:21:48.729Z,65.11
2019-05-17T14:24:15.930Z,65.23
2019-05-17T14:26:43.126Z,65.28
2019-05-17T14:29:10.348Z,64.42
2019-05-17T14:31:37.578Z,63.54
2019-05-17T14:34:04.872Z,64.42
2019-05-17T14:36:32.189Z,64.69
2019-05-17T14:38:59.681Z,64.92
2019-05-17T14:41:26.871Z,64.42
2019-05-17T14:43:54.121Z,64.35
2019-05-17T14:46:21.339Z,63.65
2019-05-17T14:48:48.548Z,63.18
2019-05-17T14:51:15.758Z,63.50
2019-05-17T14:53:42.989Z,63.53
2019-05-17T14:56:10.738Z,63.36
2019-05-17T14:58:38.009Z,63.86
2019-05-17T15:01:05.216Z,63.93
2019-05-17T15:03:32.479Z,63.87
2019-05-17T15:06:00.108Z,63.56
2019-05-17T15:08:27.286Z,62.82
2019-05-17T15:10:54.499Z,62.15
2019-05-17T15:13:21.711Z,61.60
2019-05-17T15:15:49.211Z,61.33
2019-05-17T15:18:16.425Z,61.40
2019-05-17T15:20:43.660Z,62.44
2019-05-17T15:23:11.268Z,63.10
2019-05-17T15:25:38.607Z,62.62
2019-05-17T15:28:05.851Z,61.10
2019-05-17T15:30:33.049Z,60.80
2019-05-17T15:33:02.897Z,60.02
2019-05-17T15:35:30.086Z,60.57
2019-05-17T15:37:57.287Z,61.41
2019-05-17T15:40:24.505Z,60.56
2019-05-17T15:42:51.782Z,61.40
2019-05-17T15:45:18.978Z,61.62
2019-05-17T15:47:46.521Z,62.42
2019-05-17T15:50:14.234Z,63.11
2019-05-17T15:52:41.446Z,62.57
2019-05-17T15:55:08.756Z,62.14
2019-05-17T15:57:37.135Z,62.35
2019-05-17T16:00:04.775Z,63.07
2019-05-17T16:02:32.057Z,61.64
2019-05-17T16:04:59.334Z,60.98
2019-05-17T16:07:27.017Z,61.70
2019-05-17T16:09:54.389Z,61.93
2019-05-17T16:12:21.638Z,61.84
2019-05-17T16:14:48.866Z,61.77
2019-05-17T16:17:16.078Z,61.46
2019-05-17T16:19:43.306Z,61.84
2019-05-17T16:22:10.520Z,60.68
2019-05-17T16:24:38.205Z,60.84
2019-05-17T16:27:05.435Z,60.53
2019-05-17T16:29:32.644Z,60.52
2019-05-17T16:31:59.885Z,60.54
2019-05-17T16:34:27.456Z,60.89
2019-05-17T16:36:54.646Z,61.05
2019-05-17T16:39:21.830Z,61.92
2019-05-17T16:41:49.034Z,62.34
2019-05-17T16:44:16.678Z,62.28
2019-05-17T16:46:43.858Z,61.62
2019-05-17T16:49:11.111Z,62.71
2019-05-17T16:51:38.290Z,61.56
2019-05-17T16:54:05.960Z,61.96
2019-05-17T16:56:33.175Z,61.77
2019-05-17T16:59:01.305Z,61.67
2019-05-17T17:01:28.497Z,61.82
2019-05-17T17:03:56.118Z,61.96
2019-05-17T17:06:23.318Z,62.11
2019-05-17T17:08:50.513Z,62.42
2019-05-17T17:11:18.114Z,62.11
2019-05-17T17:13:45.335Z,62.63
2019-05-17T17:16:12.518Z,62.53
2019-05-17T17:18:39.758Z,62.81
2019-05-17T17:21:07.331Z,62.99
2019-05-17T17:23:35.343Z,62.36
2019-05-17T17:26:02.544Z,61.84
2019-05-17T17:28:29.739Z,62.51
2019-05-17T17:30:57.206Z,62.05
2019-05-17T17:33:24.412Z,62.23
2019-05-17T17:35:51.726Z,62.46
2019-05-17T17:38:18.919Z,62.64
2019-05-17T17:40:46.576Z,62.75
2019-05-17T17:43:15.743Z,63.20
2019-05-17T17:45:42.916Z,63.44
2019-05-17T17:48:10.133Z,63.51
2019-05-17T17:50:37.655Z,63.89
2019-05-17T17:53:05.860Z,63.74
2019-05-17T17:55:33.207Z,64.15
2019-05-17T17:58:00.486Z,64.25
2019-05-17T18:00:28.057Z,64.33
2019-05-17T18:02:55.232Z,64.52
2019-05-17T18:05:25.042Z,64.40
2019-05-17T18:07:51.532Z,64.54
2019-05-17T18:10:29.689Z,64.52
2019-05-17T18:12:56.919Z,64.63
2019-05-17T18:15:38.853Z,64.36
2019-05-17T18:18:06.170Z,64.71
2019-05-17T18:20:33.451Z,64.32
2019-05-17T18:23:00.687Z,64.53
2019-05-17T18:25:28.153Z,64.07
2019-05-17T18:27:55.337Z,64.56
2019-05-17T18:30:22.569Z,64.56
2019-05-17T18:32:49.790Z,64.89
2019-05-17T18:35:17.477Z,65.08
2019-05-17T18:37:44.773Z,65.26
2019-05-17T18:40:12.073Z,65.61
2019-05-17T18:42:39.291Z,65.65
2019-05-17T18:45:08.625Z,65.50
2019-05-17T18:47:35.817Z,65.78
2019-05-17T18:50:03.454Z,66.06
2019-05-17T18:52:30.810Z,66.18
2019-05-17T18:54:58.389Z,66.16
2019-05-17T18:57:25.583Z,66.17
2019-05-17T18:59:53.299Z,66.21
2019-05-17T19:02:21.155Z,66.24
2019-05-17T19:04:48.801Z,66.21
2019-05-17T19:07:16.018Z,66.71
2019-05-17T19:09:43.232Z,66.77
2019-05-17T19:12:10.505Z,66.86
2019-05-17T19:14:42.855Z,66.79
2019-05-17T19:17:07.144Z,66.94
2019-05-17T19:19:34.341Z,67.26
2019-05-17T19:22:01.598Z,67.66
2019-05-17T19:24:29.269Z,67.08
2019-05-17T19:26:56.473Z,67.65
2019-05-17T19:29:23.695Z,67.95
2019-05-17T19:31:50.906Z,68.33
2019-05-17T19:34:18.388Z,68.89
2019-05-17T19:36:45.646Z,68.82
2019-05-17T19:39:12.870Z,68.76
2019-05-17T19:41:40.080Z,68.77
2019-05-17T19:44:07.752Z,68.98
2019-05-17T19:46:34.964Z,68.88
2019-05-17T19:49:02.166Z,69.07
2019-05-17T19:51:29.386Z,69.20
2019-05-17T19:53:56.934Z,69.23
2019-05-17T19:56:24.128Z,69.50
2019-05-17T19:58:51.329Z,69.52
2019-05-17T20:01:18.520Z,69.85
2019-05-17T20:03:47.178Z,69.85
2019-05-17T20:06:14.684Z,70.14
2019-05-17T20:08:42.216Z,70.14
2019-05-17T20:11:09.822Z,70.53
2019-05-17T20:13:38.813Z,70.54
2019-05-17T20:16:05.976Z,71.01
2019-05-17T20:18:33.182Z,71.12
2019-05-17T20:21:00.824Z,71.22
2019-05-17T20:23:28.026Z,71.58
2019-05-17T20:25:55.250Z,71.78
2019-05-17T20:28:22.495Z,71.86
2019-05-17T20:30:50.058Z,72.11
2019-05-17T20:33:19.230Z,72.36
2019-05-17T20:35:46.406Z,72.23
2019-05-17T20:38:13.602Z,72.58
2019-05-17T20:40:41.086Z,72.71
2019-05-17T20:43:08.318Z,72.96
2019-05-17T20:45:35.519Z,73.25
2019-05-17T20:48:02.713Z,73.50
2019-05-17T20:50:30.403Z,73.93
2019-05-17T20:52:57.559Z,74.13
2019-05-17T20:55:27.323Z,74.32
2019-05-17T20:57:54.685Z,74.74
2019-05-17T21:00:22.299Z,74.84
2019-05-17T21:02:49.491Z,75.00
2019-05-17T21:05:17.266Z,74.95
2019-05-17T21:07:44.634Z,75.17
2019-05-17T21:10:12.809Z,75.24
2019-05-17T21:12:40.050Z,75.56
2019-05-17T21:15:07.601Z,75.72
2019-05-17T21:17:34.799Z,76.08
2019-05-17T21:20:02.350Z,76.37
2019-05-17T21:22:29.604Z,76.43
2019-05-17T21:24:56.841Z,76.51
2019-05-17T21:27:24.042Z,76.55
2019-05-17T21:29:51.526Z,76.75
2019-05-17T21:32:18.710Z,76.93
2019-05-17T21:34:45.926Z,77.18
2019-05-17T21:37:13.125Z,77.05
2019-05-17T21:39:42.047Z,77.18
2019-05-17T21:42:09.573Z,77.29
2019-05-17T21:44:36.790Z,77.43
2019-05-17T21:47:05.111Z,77.64
2019-05-17T21:49:32.827Z,77.79
2019-05-17T21:52:00.020Z,78.15
2019-05-17T21:54:27.249Z,78.23
2019-05-17T21:56:54.494Z,78.33
2019-05-17T21:59:21.999Z,78.46
2019-05-17T22:01:49.309Z,78.86
2019-05-17T22:04:16.495Z,79.12
2019-05-17T22:06:43.779Z,79.31
2019-05-17T22:09:11.502Z,79.20
2019-05-17T22:11:40.622Z,79.10
2019-05-17T22:14:08.300Z,79.16
2019-05-17T22:16:35.554Z,79.17
2019-05-17T22:19:03.416Z,79.14
2019-05-17T22:21:30.676Z,79.12
2019-05-17T22:23:57.931Z,79.18
2019-05-17T22:26:25.406Z,79.30
2019-05-17T22:28:52.961Z,79.35
2019-05-17T22:31:20.422Z,79.46
2019-05-17T22:33:47.765Z,79.51
2019-05-17T22:36:15.117Z,79.54
2019-05-17T22:38:42.687Z,79.70
2019-05-17T22:41:10.762Z,79.78
2019-05-17T22:43:38.058Z,79.90
2019-05-17T22:46:05.314Z,80.35
2019-05-17T22:48:32.893Z,80.28
2019-05-17T22:51:00.060Z,80.34
2019-05-17T22:53:27.262Z,80.24
2019-05-17T22:55:54.555Z,80.28
2019-05-17T22:58:22.055Z,80.33
2019-05-17T23:00:49.250Z,80.19
2019-05-17T23:03:16.471Z,80.19
2019-05-17T23:05:43.667Z,80.27
2019-05-17T23:08:11.500Z,80.28
2019-05-17T23:10:39.511Z,79.75
2019-05-17T23:13:06.685Z,80.04
2019-05-17T23:15:45.271Z,79.94
2019-05-17T23:18:12.550Z,80.26
2019-05-17T23:20:39.743Z,80.47
2019-05-17T23:23:06.984Z,80.55
2019-05-17T23:25:34.639Z,80.18
2019-05-17T23:28:01.825Z,80.17
2019-05-17T23:30:29.023Z,80.18
2019-05-17T23:32:56.235Z,80.05
2019-05-17T23:35:23.898Z,79.87
2019-05-17T23:37:51.127Z,79.85
2019-05-17T23:40:18.451Z,79.89
2019-05-17T23:42:45.639Z,80.23
2019-05-17T23:45:13.439Z,80.47
2019-05-17T23:47:40.628Z,80.55
2019-05-17T23:50:08.335Z,80.36
2019-05-17T23:52:35.568Z,80.36
2019-05-17T23:55:03.777Z,80.17
2019-05-17T23:57:30.947Z,80.32
2019-05-17T23:59:58.147Z,80.67
